Time;durP1;ratioP1;P1;durP2;ratioP2;P2;SDS_P1;SDS_P2;PMS_P1;PMS_P2;Temp;Humidity;BMP_temperature;BMP_pressure;BME280_temperature;BME280_humidity;BME280_pressure;Samples;Min_cycle;Max_cycle;Signal;HPM_P1;HPM_P2
2021/05/29 00:02:14;;;;;;;21.08;9.95;;;;;;;-150.07;55.96;62165.09;5014479;28;20036;-88
2021/05/29 00:04:41;;;;;;;14.35;8.32;;;;;;;-150.07;55.17;62169.28;5032013;28;20037;-84
2021/05/29 00:07:08;;;;;;;22.48;8.43;;;;;;;-150.07;55.49;62204.84;5019257;28;20024;-86
2021/05/29 00:09:36;;;;;;;22.98;8.75;;;;;;;-150.07;54.92;62083.47;4998693;28;20030;-86
2021/05/29 00:12:06;;;;;;;18.95;8.73;;;;;;;-150.07;54.60;62091.84;5009918;28;20091;-88
2021/05/29 00:14:34;;;;;;;22.42;9.25;;;;;;;-150.07;56.11;62022.78;4997175;28;20486;-85
2021/05/29 00:17:01;;;;;;;20.48;8.15;;;;;;;-150.07;56.20;62273.94;5031164;28;20394;-81
2021/05/29 00:19:28;;;;;;;28.73;8.98;;;;;;;-150.07;55.21;63025.38;5019303;28;20036;-76
2021/05/29 00:21:55;;;;;;;16.70;8.27;;;;;;;-150.07;54.30;62232.06;5012927;28;20071;-81
2021/05/29 00:24:22;;;;;;;22.92;9.27;;;;;;;-150.07;53.97;62414.16;5013137;28;20029;-78
2021/05/29 00:26:50;;;;;;;28.95;10.15;;;;;;;-150.07;52.79;62481.13;5030973;28;20057;-77
2021/05/29 00:29:17;;;;;;;19.83;7.35;;;;;;;-150.07;50.83;62512.53;5028431;28;20018;-76
2021/05/29 00:31:44;;;;;;;19.92;7.68;;;;;;;-150.07;50.03;62512.53;5012363;28;20029;-77
2021/05/29 00:34:11;;;;;;;14.45;6.57;;;;;;;-150.07;49.47;62587.88;5017091;28;20052;-77
2021/05/29 00:36:38;;;;;;;15.13;7.30;;;;;;;-150.07;48.39;62219.50;5030987;28;20025;-78
2021/05/29 00:39:08;;;;;;;32.78;6.22;;;;;;;-150.07;46.84;62466.47;5012464;28;20029;-78
2021/05/29 00:41:38;;;;;;;9.07;5.68;;;;;;;-150.07;47.65;62303.22;5029138;28;20053;-78
2021/05/29 00:44:05;;;;;;;12.00;6.18;;;;;;;-150.07;48.93;63014.91;5033415;28;20037;-83
2021/05/29 00:46:32;;;;;;;18.30;8.15;;;;;;;-150.07;49.04;62412.06;5040808;28;20072;-78
2021/05/29 00:48:59;;;;;;;14.30;5.93;;;;;;;-150.07;48.69;62539.75;5041578;28;20456;-79
2021/05/29 00:51:25;;;;;;;14.45;6.82;;;;;;;-150.07;48.87;62615.09;5025982;28;20026;-79
2021/05/29 00:53:54;;;;;;;9.77;4.78;;;;;;;-150.07;47.29;62981.41;5025686;28;20390;-78
2021/05/29 00:56:23;;;;;;;11.73;5.00;;;;;;;-150.07;47.86;62368.09;5029754;28;20033;-79
2021/05/29 00:58:50;;;;;;;10.38;5.40;;;;;;;-150.07;48.29;62445.56;5033296;28;20029;-79
2021/05/29 01:01:17;;;;;;;9.88;4.72;;;;;;;-150.07;49.20;62361.84;5030395;28;20087;-79
2021/05/29 01:03:45;;;;;;;15.43;6.47;;;;;;;-150.07;48.56;62361.84;5030509;28;20014;-78
2021/05/29 01:06:12;;;;;;;13.05;5.10;;;;;;;-150.07;48.32;62447.66;5030375;28;20033;-78
2021/05/29 01:08:38;;;;;;;9.65;4.75;;;;;;;-150.07;47.91;62139.97;5031319;28;20108;-78
2021/05/29 01:11:08;;;;;;;17.20;7.40;;;;;;;-150.07;48.75;62466.47;5030230;28;20442;-78
2021/05/29 01:13:35;;;;;;;14.00;7.38;;;;;;;-150.07;49.12;62405.78;5030764;28;20481;-78
2021/05/29 01:16:13;;;;;;;11.75;5.45;;;;;;;-150.07;48.44;62449.75;5026436;28;20010;-78
2021/05/29 01:18:39;;;;;;;13.30;6.30;;;;;;;-150.07;48.18;62558.56;5013311;28;20096;-78
2021/05/29 01:21:07;;;;;;;15.55;6.30;;;;;;;-150.07;47.50;63012.81;5017519;28;20033;-78
2021/05/29 01:23:33;;;;;;;14.10;5.72;;;;;;;-150.07;47.28;63257.75;5022150;28;20046;-78
2021/05/29 01:26:01;;;;;;;10.32;6.80;;;;;;;-150.07;47.53;62579.50;5017603;28;20030;-77
2021/05/29 01:28:29;;;;;;;18.35;6.30;;;;;;;-150.07;47.54;62640.22;5016567;28;20037;-78
2021/05/29 01:31:01;;;;;;;12.77;6.53;;;;;;;-150.07;46.99;62713.47;5019575;28;20390;-78
2021/05/29 01:33:36;;;;;;;20.23;8.65;;;;;;;-150.07;47.44;62617.19;5028807;28;20029;-78
2021/05/29 01:36:09;;;;;;;14.55;6.80;;;;;;;-150.07;46.81;62592.06;5025036;28;20026;-78
2021/05/29 01:38:37;;;;;;;15.57;5.80;;;;;;;-150.07;46.98;62677.88;5023178;28;20030;-78
2021/05/29 01:41:10;;;;;;;15.18;6.40;;;;;;;-150.07;47.21;62751.16;5022206;28;20044;-78
2021/05/29 01:43:39;;;;;;;14.75;7.50;;;;;;;-150.07;46.33;62847.44;5020131;28;20026;-78
2021/05/29 01:46:10;;;;;;;12.13;5.70;;;;;;;-150.07;46.28;62853.72;5027398;28;20026;-79
2021/05/29 01:48:41;;;;;;;10.80;6.75;;;;;;;-150.07;45.39;62853.72;5024010;28;20034;-79
2021/05/29 01:51:09;;;;;;;7.78;6.10;;;;;;;-150.07;45.89;62901.88;5024815;28;20387;-79
2021/05/29 01:53:37;;;;;;;16.98;7.30;;;;;;;-150.07;45.34;62880.94;5025847;28;20021;-81
2021/05/29 01:56:05;;;;;;;13.80;6.85;;;;;;;-150.07;44.57;62636.03;5030800;28;20441;-78
2021/05/29 01:58:32;;;;;;;13.45;6.63;;;;;;;-150.07;47.14;62851.63;5034063;28;20030;-80
2021/05/29 02:00:59;;;;;;;16.33;7.07;;;;;;;-150.07;48.71;62797.19;5033869;28;20038;-78
2021/05/29 02:03:26;;;;;;;15.18;6.72;;;;;;;-150.07;49.60;62472.75;5033811;28;20056;-80
2021/05/29 02:05:53;;;;;;;15.30;7.35;;;;;;;-150.07;50.50;62523.00;5025979;28;20029;-80
2021/05/29 02:08:23;;;;;;;20.33;7.38;;;;;;;-150.07;50.86;62317.88;5028336;28;20419;-80
2021/05/29 02:10:50;;;;;;;17.42;5.95;;;;;;;-150.07;50.22;62564.84;5031495;28;20494;-79
2021/05/29 02:13:27;;;;;;;12.70;6.55;;;;;;;-150.07;50.13;62531.38;5031388;28;20029;-79
2021/05/29 02:15:55;;;;;;;15.52;6.82;;;;;;;-150.07;50.73;62512.53;5031028;28;20064;-79
2021/05/29 02:18:22;;;;;;;13.38;6.30;;;;;;;-150.07;51.56;62491.59;5022322;28;20038;-79
2021/05/29 02:21:03;;;;;;;20.08;8.00;;;;;;;-150.07;51.54;62451.84;5026725;28;20036;-79
2021/05/29 02:23:33;;;;;;;21.65;7.40;;;;;;;-150.07;52.05;62361.84;5021517;28;20076;-85
2021/05/29 02:26:08;;;;;;;14.68;7.72;;;;;;;-150.07;51.88;62420.44;5030862;28;20037;-78
2021/05/29 02:28:37;;;;;;;12.13;7.15;;;;;;;-150.07;50.32;62717.66;5014114;28;20037;-84
2021/05/29 02:31:11;;;;;;;15.82;5.88;;;;;;;-150.07;50.00;62324.16;5017299;28;20562;-89
2021/05/29 02:33:40;;;;;;;13.00;5.85;;;;;;;-150.07;50.14;62433.00;5013991;28;20545;-78
2021/05/29 02:36:07;;;;;;;11.13;5.82;;;;;;;-150.07;49.95;62537.66;5042966;28;20055;-80
2021/05/29 02:38:35;;;;;;;11.02;5.20;;;;;;;-150.07;50.00;62445.56;5031587;28;20112;-79
2021/05/29 02:41:12;;;;;;;12.35;5.80;;;;;;;-150.07;48.19;62474.84;5021674;28;20050;-81
2021/05/29 02:43:41;;;;;;;10.75;4.40;;;;;;;-150.07;47.67;62439.28;5012533;28;20036;-77
2021/05/29 02:46:09;;;;;;;15.88;6.50;;;;;;;-150.07;47.59;63102.81;5020193;28;20048;-79
2021/05/29 02:48:36;;;;;;;8.02;5.20;;;;;;;-150.07;47.80;62326.25;5033418;28;20044;-78
2021/05/29 02:51:04;;;;;;;8.98;4.72;;;;;;;-150.07;47.34;62273.94;5020177;28;20040;-78
2021/05/29 02:53:31;;;;;;;6.43;3.78;;;;;;;-150.07;47.31;62173.47;5017005;28;20077;-79
2021/05/29 02:55:58;;;;;;;9.45;4.20;;;;;;;-150.07;46.72;62391.13;5023704;28;20037;-79
2021/05/29 02:58:24;;;;;;;11.85;4.40;;;;;;;-150.07;46.47;62081.38;5032369;28;20390;-78
2021/05/29 03:00:51;;;;;;;7.63;3.33;;;;;;;-150.07;48.23;62194.41;5026834;28;20040;-78
2021/05/29 03:03:18;;;;;;;11.55;5.25;;;;;;;-150.07;51.77;62137.88;5020226;28;20029;-77
2021/05/29 03:05:47;;;;;;;18.52;6.75;;;;;;;-150.07;54.17;62093.94;5013110;28;20459;-76
2021/05/29 03:08:16;;;;;;;11.77;6.35;;;;;;;-150.07;55.66;62047.91;5013651;28;20033;-77
2021/05/29 03:10:45;;;;;;;15.50;6.45;;;;;;;-150.07;55.67;62315.78;5032588;28;20029;-78
2021/05/29 03:13:12;;;;;;;13.68;6.50;;;;;;;-150.07;54.73;62060.44;5027973;28;20071;-76
2021/05/29 03:15:39;;;;;;;16.48;7.53;;;;;;;-150.07;55.69;61832.34;5027431;28;20038;-79
2021/05/29 03:18:07;;;;;;;17.20;6.85;;;;;;;-150.07;55.59;62100.22;5029243;28;20025;-79
2021/05/29 03:20:35;;;;;;;12.50;6.45;;;;;;;-150.07;56.88;62010.22;5021107;28;20474;-79
2021/05/29 03:23:02;;;;;;;18.67;6.85;;;;;;;-150.07;57.21;61997.66;5031748;28;20025;-76
2021/05/29 03:25:28;;;;;;;12.15;6.20;;;;;;;-150.07;56.67;62619.28;5029133;28;20048;-78
2021/05/29 03:27:55;;;;;;;16.13;6.10;;;;;;;-150.07;56.19;61748.63;5017299;28;20029;-77
2021/05/29 03:30:28;;;;;;;13.18;6.20;;;;;;;-150.07;56.41;62026.97;5028146;28;20037;-78
2021/05/29 03:32:58;;;;;;;17.27;7.15;;;;;;;-150.07;55.36;62211.13;5031575;28;20029;-77
2021/05/29 03:35:25;;;;;;;;;;;;;;;-150.07;54.07;62152.53;5018990;28;20034;-77
2021/05/29 03:37:52;;;;;;;14.38;5.95;;;;;;;-150.07;53.26;62102.31;5031869;28;19921;-78
2021/05/29 03:40:20;;;;;;;12.18;5.97;;;;;;;-150.07;53.24;61888.84;5025002;28;20041;-78
2021/05/29 03:42:47;;;;;;;13.02;6.35;;;;;;;-150.07;52.47;62152.53;5031454;28;20474;-79
2021/05/29 03:45:16;;;;;;;12.00;5.30;;;;;;;-150.07;52.23;62131.59;5020183;28;20038;-78
2021/05/29 03:47:44;;;;;;;12.00;4.63;;;;;;;-150.07;51.91;62102.31;5027435;28;20034;-78
2021/05/29 03:50:13;;;;;;;11.80;5.43;;;;;;;-150.07;51.59;62114.88;5018553;28;20040;-78
2021/05/29 03:52:44;;;;;;;12.40;5.15;;;;;;;-150.07;50.89;62816.03;5017769;28;20080;-77
2021/05/29 03:55:16;;;;;;;12.82;5.38;;;;;;;-150.07;50.23;62259.28;5023596;28;20025;-78
2021/05/29 03:57:44;;;;;;;11.55;4.97;;;;;;;-150.07;50.21;62119.06;5033687;28;20406;-78
2021/05/29 04:00:14;;;;;;;18.13;5.00;;;;;;;-150.07;50.69;62313.69;5015442;28;20080;-78
2021/05/29 04:02:42;;;;;;;15.10;5.63;;;;;;;-150.07;51.12;62234.16;5018839;28;20100;-78
2021/05/29 04:05:09;;;;;;;14.65;5.20;;;;;;;-150.07;51.42;62319.97;5019697;28;20030;-77
2021/05/29 04:07:39;;;;;;;15.40;5.57;;;;;;;-150.07;51.61;62294.84;5020853;28;20025;-80
2021/05/29 04:10:11;;;;;;;10.20;5.63;;;;;;;-150.07;51.18;62144.16;5021232;28;20029;-77
2021/05/29 04:12:39;;;;;;;17.00;5.32;;;;;;;-150.07;51.07;62186.03;5021641;28;20112;-78
2021/05/29 04:15:07;;;;;;;13.15;5.25;;;;;;;-150.07;50.18;62328.34;5022969;28;20029;-78
2021/05/29 04:17:34;;;;;;;17.45;4.82;;;;;;;-150.07;50.99;62232.06;5021084;28;20052;-77
2021/05/29 04:20:01;;;;;;;13.15;4.40;;;;;;;-150.07;52.03;62160.91;5023281;28;20035;-77
2021/05/29 04:22:28;;;;;;;12.68;5.60;;;;;;;-150.07;52.17;62248.81;5020322;28;20029;-76
2021/05/29 04:24:55;;;;;;;12.07;5.22;;;;;;;-150.07;52.26;62209.03;5023487;28;20057;-77
2021/05/29 04:27:22;;;;;;;16.42;5.40;;;;;;;-150.07;51.93;62296.94;5037585;28;20028;-78
2021/05/29 04:29:49;;;;;;;16.40;4.78;;;;;;;-150.07;50.23;62198.59;5025773;28;20036;-78
2021/05/29 04:32:16;;;;;;;14.35;5.30;;;;;;;-150.07;50.96;62089.75;5016781;28;20761;-77
2021/05/29 04:34:43;;;;;;;13.15;5.82;;;;;;;-150.07;50.79;62985.59;5018229;28;20033;-77
2021/05/29 04:37:15;;;;;;;20.40;5.45;;;;;;;-150.07;50.52;62278.13;5016600;28;20029;-77
2021/05/29 04:39:42;;;;;;;10.65;4.57;;;;;;;-150.07;50.05;62399.50;5016681;28;20050;-77
2021/05/29 04:42:09;;;;;;;13.68;6.30;;;;;;;-150.07;49.71;62359.75;5015684;28;20026;-77
2021/05/29 04:44:37;;;;;;;9.38;5.15;;;;;;;-150.07;49.04;62499.97;5021460;28;20028;-76
2021/05/29 04:47:04;;;;;;;10.88;4.60;;;;;;;-150.07;49.23;62518.81;5023564;28;20026;-78
2021/05/29 04:49:31;;;;;;;16.88;6.90;;;;;;;-150.07;49.14;62428.81;5023895;28;20017;-78
2021/05/29 04:51:59;;;;;;;19.85;8.25;;;;;;;-150.07;50.35;62378.56;5020059;28;20036;-78
2021/05/29 04:54:27;;;;;;;20.02;7.13;;;;;;;-150.07;49.92;62278.13;5027921;28;20440;-78
2021/05/29 04:56:54;;;;;;;13.68;7.03;;;;;;;-150.07;49.72;62225.78;5026208;28;20052;-77
2021/05/29 04:59:21;;;;;;;16.25;6.13;;;;;;;-150.07;49.02;62493.69;5026482;28;20512;-80
2021/05/29 05:01:48;;;;;;;18.30;7.93;;;;;;;-150.07;49.30;62399.50;5025013;28;20124;-91
2021/05/29 05:04:16;;;;;;;15.68;7.95;;;;;;;-150.07;49.87;62439.28;5023497;28;20461;-78
2021/05/29 05:06:44;;;;;;;12.57;6.20;;;;;;;-150.07;50.08;62476.94;5045164;28;20173;-77
2021/05/29 05:09:11;;;;;;;13.15;5.78;;;;;;;-150.07;49.57;62516.72;5025040;28;20478;-77
2021/05/29 05:11:38;;;;;;;13.65;5.88;;;;;;;-150.07;48.67;62489.50;5024745;28;20485;-77
2021/05/29 05:14:05;;;;;;;13.02;7.20;;;;;;;-150.07;48.05;62386.94;5024548;28;20033;-78
2021/05/29 05:16:32;;;;;;;8.52;5.15;;;;;;;-150.07;46.05;62499.97;5024675;28;20026;-78
2021/05/29 05:18:59;;;;;;;7.50;6.10;;;;;;;-150.07;45.98;62466.47;5023885;28;20534;-77
2021/05/29 05:21:26;;;;;;;16.42;5.97;;;;;;;-150.07;46.68;62579.50;5022401;28;20109;-77
2021/05/29 05:23:54;;;;;;;11.60;5.68;;;;;;;-150.07;47.06;63023.28;5029436;28;20033;-77
2021/05/29 05:26:21;;;;;;;8.32;6.10;;;;;;;-150.07;47.01;63138.41;5030116;28;20037;-78
2021/05/29 05:28:48;;;;;;;17.65;7.20;;;;;;;-150.07;46.88;62491.59;5028092;28;20038;-77
2021/05/29 05:31:15;;;;;;;13.93;5.80;;;;;;;-150.07;46.48;62215.31;5027001;28;20025;-77
2021/05/29 05:33:44;;;;;;;14.50;6.22;;;;;;;-150.07;46.09;62520.91;5019919;28;20033;-76
2021/05/29 05:36:13;;;;;;;17.10;6.60;;;;;;;-150.07;46.53;62412.06;5030696;28;20039;-77
2021/05/29 05:38:42;;;;;;;11.45;6.10;;;;;;;-150.07;44.73;62516.72;5026385;28;20033;-76
2021/05/29 05:41:10;;;;;;;11.43;6.53;;;;;;;-150.07;44.13;62552.31;5024000;28;20038;-76
2021/05/29 05:43:37;;;;;;;15.07;7.93;;;;;;;-150.07;43.23;62673.69;5025057;28;20386;-76
2021/05/29 05:46:04;;;;;;;8.68;6.00;;;;;;;-150.07;42.74;62435.09;5019387;28;20108;-78
2021/05/29 05:48:32;;;;;;;12.80;7.05;;;;;;;-150.07;42.91;62688.34;5017628;28;20775;-76
2021/05/29 05:51:00;;;;;;;14.10;6.60;;;;;;;-150.07;43.46;63358.22;5024881;28;20098;-78
2021/05/29 05:53:30;;;;;;;9.25;5.88;;;;;;;-150.07;44.18;62502.06;5020945;28;20036;-78
2021/05/29 05:56:04;;;;;;;;;;;;;;;-150.07;44.37;62596.25;5021294;28;20084;-78
2021/05/29 05:58:34;;;;;;;15.38;7.68;;;;;;;-150.07;44.29;63282.84;5021074;28;19921;-78
2021/05/29 06:01:01;;;;;;;14.23;6.20;;;;;;;-150.07;44.55;62449.75;5026581;28;20363;-76
2021/05/29 06:03:28;;;;;;;10.73;7.20;;;;;;;-150.07;45.36;62412.06;5023889;28;20376;-77
2021/05/29 06:05:55;;;;;;;14.85;6.88;;;;;;;-150.07;45.63;62562.75;5026704;28;20084;-79
2021/05/29 06:08:22;;;;;;;14.38;7.78;;;;;;;-150.07;45.21;62491.59;5030099;28;20038;-79
2021/05/29 06:10:51;;;;;;;16.45;8.07;;;;;;;-150.07;45.62;62284.38;5025512;28;20040;-76
2021/05/29 06:21:28;;;;;;;16.63;8.73;;;;;;;-150.07;44.89;62487.41;5017141;28;20533;-77
2021/05/29 06:23:55;;;;;;;13.82;7.88;;;;;;;-150.07;44.51;62309.50;5028870;28;20033;-77
2021/05/29 06:26:22;;;;;;;12.35;7.22;;;;;;;-150.07;45.00;62093.94;5020801;28;20049;-79
2021/05/29 06:28:49;;;;;;;14.77;6.25;;;;;;;-150.07;45.34;62104.41;5021240;28;20391;-77
2021/05/29 06:31:16;;;;;;;11.60;5.88;;;;;;;-150.07;45.54;62198.59;5016488;28;20080;-80
2021/05/29 06:33:42;;;;;;;10.93;6.15;;;;;;;-150.07;45.32;62280.22;5027027;28;20035;-77
2021/05/29 06:36:09;;;;;;;10.75;6.28;;;;;;;-150.07;45.27;62119.06;5020135;28;20475;-85
2021/05/29 06:38:36;;;;;;;9.10;6.47;;;;;;;-150.07;44.77;62050.00;5022299;28;20018;-86
2021/05/29 06:41:04;;;;;;;12.73;6.60;;;;;;;-150.07;45.12;62250.91;5019544;28;20049;-81
2021/05/29 06:43:31;;;;;;;14.90;5.90;;;;;;;-150.07;45.29;63010.72;5022013;28;20029;-78
2021/05/29 06:45:58;;;;;;;10.73;5.68;;;;;;;-150.07;45.37;62098.13;5025337;28;20033;-91
2021/05/29 06:48:25;;;;;;;6.50;5.18;;;;;;;-150.07;45.04;62169.28;5025782;28;20029;-77
2021/05/29 06:50:55;;;;;;;7.32;5.00;;;;;;;-150.07;44.94;62165.09;5026527;28;20029;-78
2021/05/29 06:53:27;;;;;;;6.40;4.43;;;;;;;-150.07;44.45;62125.31;5028775;28;20036;-76
2021/05/29 06:58:47;;;;;;;5.30;3.60;;;;;;;-150.07;43.99;61819.78;5020633;28;20061;-79
2021/05/29 07:01:14;;;;;;;4.65;3.25;;;;;;;-150.07;44.05;62826.50;5012785;28;20133;-78
2021/05/29 07:03:41;;;;;;;9.57;3.53;;;;;;;-150.07;44.62;62037.44;5014248;28;20033;-78
2021/05/29 07:06:08;;;;;;;5.63;3.35;;;;;;;-150.07;44.90;62839.06;5024902;28;20120;-79
2021/05/29 07:08:35;;;;;;;6.43;3.05;;;;;;;-150.07;44.70;61947.44;5015250;28;20457;-79
2021/05/29 07:11:02;;;;;;;7.60;3.33;;;;;;;-150.07;45.45;62060.44;5027916;28;20048;-79
2021/05/29 07:13:28;;;;;;;6.10;3.88;;;;;;;-150.07;45.55;61964.19;5031111;28;20601;-79
2021/05/29 07:15:55;;;;;;;8.90;3.65;;;;;;;-150.07;45.30;61974.66;5032402;28;20474;-79
2021/05/29 07:18:25;;;;;;;6.45;3.60;;;;;;;-150.07;45.56;61811.41;5021822;28;20470;-79
2021/05/29 07:20:51;;;;;;;7.13;3.63;;;;;;;-150.07;45.18;62089.75;5028813;28;20038;-79
2021/05/29 07:23:18;;;;;;;5.78;3.25;;;;;;;-150.07;45.56;62010.22;5029807;28;20342;-78
2021/05/29 07:25:45;;;;;;;3.50;2.78;;;;;;;-150.07;46.39;61759.09;5030283;28;20124;-78
2021/05/29 07:28:12;;;;;;;6.72;3.55;;;;;;;-150.07;48.02;62403.69;5024419;28;20029;-79
2021/05/29 07:30:39;;;;;;;4.57;3.85;;;;;;;-150.07;49.19;61591.69;5021832;28;20036;-77
2021/05/29 07:33:06;;;;;;;5.65;4.68;;;;;;;-150.07;50.53;61857.44;5017065;28;20053;-79
2021/05/29 07:35:33;;;;;;;7.35;5.32;;;;;;;-150.07;51.49;62550.22;5012770;28;20053;-77
2021/05/29 07:38:00;;;;;;;7.28;5.07;;;;;;;-150.07;52.53;61788.38;5019859;28;20410;-78
2021/05/29 07:40:28;;;;;;;8.57;5.20;;;;;;;-150.07;52.74;61754.91;5031704;28;20060;-78
2021/05/29 07:42:54;;;;;;;9.10;5.45;;;;;;;-150.07;52.21;61746.53;5043117;28;20034;-81
2021/05/29 07:45:22;;;;;;;6.38;5.43;;;;;;;-150.07;52.33;61821.88;5026235;28;20461;-81
2021/05/29 07:47:50;;;;;;;5.38;4.97;;;;;;;-150.07;51.81;61788.38;5030551;28;20025;-79
2021/05/29 07:50:17;;;;;;;8.82;5.25;;;;;;;-150.07;51.87;61811.41;5012131;28;20351;-80
2021/05/29 07:52:46;;;;;;;3.63;3.33;;;;;;;-150.07;51.24;62399.50;5012259;28;20022;-80
2021/05/29 07:55:13;;;;;;;3.83;3.50;;;;;;;-150.07;49.68;61886.75;5021170;28;20112;-82
2021/05/29 07:57:40;;;;;;;3.63;2.72;;;;;;;-150.07;50.14;61876.28;5031375;28;20057;-82
2021/05/29 08:00:12;;;;;;;3.50;2.72;;;;;;;-150.07;50.48;61729.78;5026623;28;20040;-79
2021/05/29 08:02:40;;;;;;;2.75;2.55;;;;;;;-150.07;49.84;61813.50;5030531;28;20036;-78
2021/05/29 08:05:15;;;;;;;11.45;3.53;;;;;;;-150.07;49.94;61857.44;5029411;28;20068;-78
2021/05/29 08:07:42;;;;;;;3.75;3.45;;;;;;;-150.07;49.58;61874.19;5012138;28;20088;-80
2021/05/29 08:10:10;;;;;;;4.32;2.95;;;;;;;-150.07;50.13;61872.09;5024912;28;20516;-79
2021/05/29 08:12:37;;;;;;;6.20;4.57;;;;;;;-150.07;50.00;61752.81;5030683;28;20483;-79
2021/05/29 08:15:06;;;;;;;4.82;3.47;;;;;;;-150.07;50.15;61792.56;5025210;28;20072;-80
2021/05/29 08:17:33;;;;;;;4.33;3.93;;;;;;;-150.07;50.13;61819.78;5031783;28;20018;-79
2021/05/29 08:20:00;;;;;;;8.13;4.28;;;;;;;-150.07;50.41;61759.09;5031183;28;20705;-80
2021/05/29 08:22:27;;;;;;;5.55;3.20;;;;;;;-150.07;50.46;61911.88;5030864;28;20044;-80
2021/05/29 08:24:54;;;;;;;4.75;3.58;;;;;;;-150.07;50.03;61867.91;5026108;28;20029;-79
2021/05/29 08:27:20;;;;;;;4.78;3.38;;;;;;;-150.07;49.85;61867.91;5034936;28;20067;-80
2021/05/29 08:29:47;;;;;;;4.63;2.60;;;;;;;-150.07;49.02;61658.66;5031083;28;20034;-78
2021/05/29 08:32:14;;;;;;;4.22;3.03;;;;;;;-150.07;49.10;61706.78;5019588;28;20043;-78
2021/05/29 08:34:41;;;;;;;3.03;2.65;;;;;;;-150.07;48.66;61930.69;5029749;28;20029;-79
2021/05/29 08:37:08;;;;;;;3.30;2.75;;;;;;;-150.07;48.40;62633.94;5033008;28;20033;-79
2021/05/29 08:39:35;;;;;;;5.78;2.95;;;;;;;-150.07;48.79;61913.94;5027887;28;20132;-79
2021/05/29 08:42:05;;;;;;;9.40;4.38;;;;;;;-150.07;48.64;61901.41;5031782;28;20025;-78
2021/05/29 08:44:33;;;;;;;3.97;3.35;;;;;;;-150.07;48.54;61855.34;5028649;28;20449;-78
2021/05/29 08:47:02;;;;;;;4.55;3.30;;;;;;;-150.07;48.33;61972.56;5030752;28;20030;-79
2021/05/29 08:49:29;;;;;;;4.03;3.63;;;;;;;-150.07;48.44;61627.25;5030488;28;20120;-79
2021/05/29 08:51:58;;;;;;;7.20;4.18;;;;;;;-150.07;48.71;61817.69;5031551;28;20033;-79
2021/05/29 08:54:28;;;;;;;6.47;3.72;;;;;;;-150.07;48.68;61719.34;5023428;28;20497;-79
2021/05/29 08:56:54;;;;;;;4.40;4.00;;;;;;;-150.07;48.48;61830.25;5030375;28;20347;-79
2021/05/29 08:59:21;;;;;;;4.78;4.20;;;;;;;-150.07;48.43;61911.88;5028443;28;20042;-80
2021/05/29 09:01:48;;;;;;;8.27;6.25;;;;;;;-150.07;48.82;61926.50;5030763;28;20472;-78
2021/05/29 09:04:16;;;;;;;10.60;6.50;;;;;;;-150.07;49.22;61916.03;5029584;28;20026;-79
2021/05/29 09:06:45;;;;;;;8.10;7.05;;;;;;;-150.07;49.45;61867.91;5033087;28;20042;-80
2021/05/29 09:09:14;;;;;;;7.53;6.00;;;;;;;-150.07;49.59;61907.69;5023586;28;20060;-79
2021/05/29 09:11:49;;;;;;;9.20;7.40;;;;;;;-150.07;49.98;61886.75;5030061;28;20056;-79
2021/05/29 09:14:27;;;;;;;10.73;6.70;;;;;;;-150.07;49.90;61878.38;5024700;28;20026;-79
2021/05/29 09:17:05;;;;;;;8.00;6.40;;;;;;;-150.07;50.21;61890.94;5022905;28;20044;-79
2021/05/29 09:20:04;;;;;;;9.05;6.85;;;;;;;-150.07;50.37;61876.28;5024692;28;20041;-78
2021/05/29 09:22:53;;;;;;;12.70;6.50;;;;;;;-150.07;50.80;61838.63;5027211;28;20037;-78
2021/05/29 09:25:24;;;;;;;11.80;8.33;;;;;;;-150.07;50.49;61872.09;5032729;28;20036;-79
2021/05/29 09:27:56;;;;;;;8.52;6.50;;;;;;;-150.07;51.00;61823.97;5030322;28;20119;-79
2021/05/29 09:30:36;;;;;;;11.63;8.38;;;;;;;-150.07;51.01;61834.44;5029280;28;20032;-78
2021/05/29 09:33:12;;;;;;;10.57;8.30;;;;;;;-150.07;51.22;61752.81;5029996;28;20029;-78
2021/05/29 09:35:38;;;;;;;9.52;6.28;;;;;;;-150.07;51.39;61784.22;5029872;28;20029;-78
2021/05/29 09:38:06;;;;;;;9.95;7.32;;;;;;;-150.07;51.45;61750.72;5030070;28;20052;-78
2021/05/29 09:40:33;;;;;;;8.85;7.60;;;;;;;-150.07;51.37;61813.50;5030080;28;20518;-78
2021/05/29 09:43:08;;;;;;;8.63;6.80;;;;;;;-150.07;51.57;61796.75;5029768;28;20438;-80
2021/05/29 09:45:37;;;;;;;7.00;6.30;;;;;;;-150.07;51.54;61566.56;5025089;28;20037;-81
2021/05/29 09:48:18;;;;;;;8.32;6.72;;;;;;;-150.07;51.60;61823.97;5027415;28;20028;-82
2021/05/29 09:51:13;;;;;;;11.07;6.15;;;;;;;-150.07;51.69;61823.97;5027491;28;20038;-78
2021/05/29 09:53:47;;;;;;;11.15;6.45;;;;;;;-150.07;51.77;61805.13;5026742;28;20452;-79
2021/05/29 09:56:28;;;;;;;9.23;7.03;;;;;;;-150.07;52.00;61771.66;5031315;28;20033;-78
2021/05/29 09:58:58;;;;;;;10.52;7.03;;;;;;;-150.07;51.88;61823.97;5027229;28;20033;-77
2021/05/29 10:01:47;;;;;;;9.02;7.28;;;;;;;-150.07;52.15;61821.88;5013854;28;20039;-79
2021/05/29 10:04:23;;;;;;;11.23;7.28;;;;;;;-150.07;52.20;61832.34;5020059;28;20030;-80
2021/05/29 10:06:58;;;;;;;8.63;7.40;;;;;;;-150.07;52.25;61648.19;5020890;28;20025;-78
2021/05/29 10:09:26;;;;;;;9.40;7.90;;;;;;;-150.07;52.35;61794.66;5022936;28;20097;-78
2021/05/29 10:11:53;;;;;;;10.82;6.35;;;;;;;-150.07;52.58;61698.41;5024712;28;20486;-78
2021/05/29 10:14:20;;;;;;;10.20;8.02;;;;;;;-150.07;52.34;61796.75;5024787;28;20033;-76
2021/05/29 10:16:51;;;;;;;9.30;7.53;;;;;;;-150.07;52.55;61738.16;5022857;28;20026;-82
2021/05/29 10:19:22;;;;;;;6.97;6.28;;;;;;;-150.07;52.55;61608.41;5024097;28;20136;-77
2021/05/29 10:21:50;;;;;;;10.93;6.43;;;;;;;-150.07;52.81;62428.81;5031474;28;20082;-77
2021/05/29 10:24:18;;;;;;;9.73;6.50;;;;;;;-150.07;52.85;62399.50;5022022;28;20013;-78
2021/05/29 10:26:46;;;;;;;6.95;6.22;;;;;;;-150.07;52.91;61740.25;5025906;28;20046;-80
2021/05/29 10:29:13;;;;;;;9.07;6.20;;;;;;;-150.07;53.04;61767.47;5018352;28;20022;-77
2021/05/29 10:31:43;;;;;;;8.93;6.93;;;;;;;-150.07;52.92;61646.09;5024963;28;20033;-76
2021/05/29 10:34:10;;;;;;;12.23;7.47;;;;;;;-150.07;53.01;61782.13;5031305;28;20068;-75
2021/05/29 10:36:42;;;;;;;8.25;6.30;;;;;;;-150.07;52.98;61434.75;5011606;28;20030;-75
2021/05/29 10:39:25;;;;;;;9.80;6.03;;;;;;;-150.07;53.10;61775.84;5012603;28;20030;-75
2021/05/29 10:41:59;;;;;;;7.95;6.65;;;;;;;-150.07;53.29;61788.38;5020195;28;20083;-78
2021/05/29 10:44:29;;;;;;;10.50;8.07;;;;;;;-150.07;53.27;62520.91;5027223;28;20072;-77
2021/05/29 10:47:14;;;;;;;10.30;8.30;;;;;;;-150.07;53.43;61794.66;5026121;28;20048;-77
2021/05/29 10:49:50;;;;;;;11.07;6.75;;;;;;;-150.07;53.64;61729.78;5023629;28;20292;-76
2021/05/29 10:52:40;;;;;;;11.05;6.88;;;;;;;-150.07;53.67;61746.53;5014577;28;20099;-77
2021/05/29 10:55:19;;;;;;;;;;;;;;;-150.07;53.64;61765.38;5014567;28;20032;-78
2021/05/29 10:57:49;;;;;;;16.35;8.68;;;;;;;-150.07;53.83;61752.81;5019380;28;19924;-76
2021/05/29 11:00:37;;;;;;;9.77;7.07;;;;;;;-150.07;53.99;61775.84;5031266;28;20066;-75
2021/05/29 11:03:27;;;;;;;10.45;7.97;;;;;;;-150.07;53.96;61792.56;5023919;28;20542;-78
2021/05/29 11:05:56;;;;;;;11.65;7.85;;;;;;;-150.07;54.11;61775.84;5025572;28;20204;-77
2021/05/29 11:08:49;;;;;;;10.73;7.88;;;;;;;-150.07;53.86;61767.47;5032269;28;20038;-80
2021/05/29 11:11:38;;;;;;;13.82;9.00;;;;;;;-150.07;53.99;61750.72;5032579;28;20037;-77
2021/05/29 11:14:12;;;;;;;12.05;8.82;;;;;;;-150.07;53.97;61744.44;5021342;28;20032;-78
2021/05/29 11:16:54;;;;;;;11.23;8.98;;;;;;;-150.07;53.81;61784.22;5031486;28;20052;-78
2021/05/29 11:19:31;;;;;;;15.18;9.90;;;;;;;-150.07;53.86;61618.88;5019502;28;20096;-77
2021/05/29 11:22:14;;;;;;;8.27;7.47;;;;;;;-150.07;54.04;61750.72;5027249;28;20032;-79
2021/05/29 11:24:48;;;;;;;10.93;9.35;;;;;;;-150.07;54.08;61763.28;5032608;28;20025;-78
2021/05/29 11:27:18;;;;;;;10.57;8.32;;;;;;;-150.07;53.76;61740.25;5025778;28;20470;-77
2021/05/29 11:29:55;;;;;;;9.27;8.35;;;;;;;-150.07;53.82;61767.47;5019737;28;20116;-77
2021/05/29 11:32:47;;;;;;;8.32;7.53;;;;;;;-150.07;53.36;61786.31;5018881;28;20041;-78
2021/05/29 11:35:33;;;;;;;8.15;7.32;;;;;;;-150.07;53.33;61608.41;5012431;28;20482;-79